createdAt,value
2024-03-05T04:01:09.763Z,27.40
2024-03-05T04:03:37.721Z,25.13
2024-03-05T04:06:06.093Z,25.80
2024-03-05T04:08:34.809Z,27.45
2024-03-05T04:11:02.931Z,29.05
2024-03-05T04:13:30.958Z,25.45
2024-03-05T04:16:00.239Z,30.73
2024-03-05T04:18:29.457Z,26.02
2024-03-05T04:20:57.933Z,24.65
2024-03-05T04:23:25.827Z,26.60
2024-03-05T04:25:59.207Z,27.08
2024-03-05T04:28:28.099Z,24.98
2024-03-05T04:30:58.342Z,24.42
2024-03-05T04:33:29.435Z,25.83
2024-03-05T04:35:59.347Z,27.02
2024-03-05T04:38:27.290Z,29.40
2024-03-05T04:40:55.238Z,34.38
2024-03-05T04:43:23.277Z,32.35
2024-03-05T04:45:51.328Z,31.38
2024-03-05T04:48:20.724Z,28.15
2024-03-05T04:50:48.868Z,27.92
2024-03-05T04:53:18.070Z,26.20
2024-03-05T04:55:46.014Z,27.52
2024-03-05T04:58:14.392Z,28.30
2024-03-05T05:00:42.500Z,27.75
2024-03-05T05:03:10.380Z,29.67
2024-03-05T05:05:40.931Z,32.72
2024-03-05T05:08:09.123Z,26.55
2024-03-05T05:10:38.491Z,29.40
2024-03-05T05:13:06.551Z,31.13
2024-03-05T05:15:35.383Z,29.80
2024-03-05T05:18:03.388Z,27.63
2024-03-05T05:20:31.626Z,32.25
2024-03-05T05:22:59.567Z,31.23
2024-03-05T05:25:27.642Z,30.05
2024-03-05T05:27:55.947Z,27.38
2024-03-05T05:30:24.714Z,30.58
2024-03-05T05:32:53.141Z,30.10
2024-03-05T05:35:21.257Z,30.15
2024-03-05T05:37:49.525Z,29.17
2024-03-05T05:40:21.193Z,30.58
2024-03-05T05:42:50.949Z,40.53
2024-03-05T05:45:22.751Z,40.95
2024-03-05T05:47:55.028Z,40.92
2024-03-05T05:50:25.010Z,38.78
2024-03-05T05:52:55.141Z,35.72
2024-03-05T05:55:26.298Z,30.80
2024-03-05T05:57:55.700Z,34.95
2024-03-05T06:00:33.387Z,28.40
2024-03-05T06:03:02.358Z,26.13
2024-03-05T06:05:32.815Z,31.95
2024-03-05T06:08:02.138Z,32.95
2024-03-05T06:10:30.946Z,30.40
2024-03-05T06:12:59.701Z,31.88
2024-03-05T06:15:30.289Z,30.33
2024-03-05T06:17:59.418Z,26.48
2024-03-05T06:20:28.850Z,31.90
2024-03-05T06:22:57.130Z,25.98
2024-03-05T06:25:25.299Z,29.45
2024-03-05T06:27:53.539Z,32.97
2024-03-05T06:30:22.360Z,30.67
2024-03-05T06:32:52.883Z,24.50
2024-03-05T06:35:23.678Z,27.92
2024-03-05T06:37:53.469Z,27.10
2024-03-05T06:40:23.962Z,29.17
2024-03-05T06:42:54.452Z,33.33
2024-03-05T06:45:28.632Z,32.72
2024-03-05T06:48:11.427Z,30.65
2024-03-05T06:50:44.767Z,28.77
2024-03-05T06:53:31.441Z,33.30
2024-03-05T06:56:17.117Z,36.55
2024-03-05T06:58:47.212Z,34.67
2024-03-05T07:01:16.082Z,30.58
2024-03-05T07:03:45.445Z,31.25
2024-03-05T07:06:14.503Z,31.52
2024-03-05T07:08:44.093Z,29.50
2024-03-05T07:11:14.173Z,28.35
2024-03-05T07:13:45.278Z,30.30
2024-03-05T07:16:15.242Z,32.28
2024-03-05T07:18:44.825Z,30.27
2024-03-05T07:21:13.040Z,30.35
2024-03-05T07:23:41.685Z,31.58
2024-03-05T07:26:09.713Z,27.70
2024-03-05T07:28:39.500Z,29.15
2024-03-05T07:31:08.016Z,30.40
2024-03-05T07:33:36.725Z,30.83
2024-03-05T07:36:07.703Z,30.15
2024-03-05T07:38:35.710Z,32.03
2024-03-05T07:41:13.304Z,27.80
2024-03-05T07:43:45.900Z,30.63
2024-03-05T07:46:13.814Z,32.83
2024-03-05T07:48:42.278Z,31.23
2024-03-05T07:51:12.253Z,29.38
2024-03-05T07:53:42.423Z,28.95
2024-03-05T07:56:10.649Z,29.05
2024-03-05T07:58:38.586Z,28.73
2024-03-05T08:01:08.248Z,29.70
2024-03-05T08:03:36.250Z,26.58
2024-03-05T08:06:05.458Z,27.85
2024-03-05T08:08:34.746Z,27.08
2024-03-05T08:11:02.959Z,28.83
2024-03-05T08:13:31.072Z,29.13
2024-03-05T08:15:59.096Z,29.70
2024-03-05T08:18:26.978Z,29.13
2024-03-05T08:20:54.875Z,27.45
2024-03-05T08:23:23.774Z,29.23
2024-03-05T08:25:53.155Z,28.00
2024-03-05T08:28:21.107Z,29.80
2024-03-05T08:30:49.271Z,31.52
2024-03-05T08:33:21.235Z,31.60
2024-03-05T08:35:49.548Z,31.65
2024-03-05T08:38:17.534Z,29.27
2024-03-05T08:40:45.530Z,32.45
2024-03-05T08:43:15.417Z,29.08
2024-03-05T08:45:43.303Z,30.08
2024-03-05T08:48:11.240Z,29.40
2024-03-05T08:50:40.729Z,29.38
2024-03-05T08:53:10.897Z,34.25
2024-03-05T08:55:39.032Z,32.03
2024-03-05T08:58:07.398Z,30.00
2024-03-05T09:00:42.597Z,33.15
2024-03-05T09:03:12.790Z,33.08
2024-03-05T09:05:43.156Z,31.27
2024-03-05T09:08:13.453Z,28.58
2024-03-05T09:10:41.922Z,29.40
2024-03-05T09:13:09.946Z,33.28
2024-03-05T09:15:43.438Z,29.15
2024-03-05T09:18:15.763Z,33.92
2024-03-05T09:20:46.046Z,27.70
2024-03-05T09:23:14.138Z,31.65
2024-03-05T09:25:43.508Z,30.25
2024-03-05T09:28:12.782Z,31.08
2024-03-05T09:30:42.275Z,31.27
2024-03-05T09:33:11.725Z,29.05
2024-03-05T09:35:41.106Z,30.42
2024-03-05T09:38:09.302Z,31.80
2024-03-05T09:40:38.843Z,33.70
2024-03-05T09:43:06.881Z,32.55
2024-03-05T09:45:38.900Z,31.55
2024-03-05T09:48:09.939Z,35.53
2024-03-05T09:50:38.937Z,34.40
2024-03-05T09:53:07.284Z,28.58
2024-03-05T09:55:35.515Z,33.20
2024-03-05T09:58:10.410Z,31.98
2024-03-05T10:00:39.552Z,35.22
2024-03-05T10:03:10.234Z,30.00
2024-03-05T10:05:39.340Z,31.90
2024-03-05T10:08:08.438Z,32.90
2024-03-05T10:10:38.417Z,30.73
2024-03-05T10:13:07.781Z,33.25
2024-03-05T10:15:38.316Z,33.90
2024-03-05T10:18:08.804Z,33.40
2024-03-05T10:20:39.071Z,32.15
2024-03-05T10:23:09.338Z,31.08
2024-03-05T10:25:37.850Z,34.60
2024-03-05T10:28:09.841Z,36.63
2024-03-05T10:30:39.060Z,41.55
2024-03-05T10:33:09.334Z,35.08
2024-03-05T10:35:40.067Z,37.78
2024-03-05T10:38:10.995Z,37.53
2024-03-05T10:40:45.745Z,33.80
2024-03-05T10:43:16.963Z,36.08
2024-03-05T10:45:46.037Z,38.28
2024-03-05T10:48:16.302Z,35.22
2024-03-05T10:50:50.012Z,35.42
2024-03-05T10:53:18.562Z,37.80
2024-03-05T10:55:52.653Z,40.63
2024-03-05T10:58:38.178Z,32.17
2024-03-05T11:01:08.030Z,36.13
2024-03-05T11:03:40.274Z,41.00
2024-03-05T11:06:12.074Z,36.88
2024-03-05T11:08:40.076Z,36.10
2024-03-05T11:11:13.988Z,34.30
2024-03-05T11:13:43.337Z,36.05
2024-03-05T11:16:11.440Z,35.80
2024-03-05T11:18:40.136Z,37.17
2024-03-05T11:21:11.378Z,37.55
2024-03-05T11:23:42.854Z,34.15
2024-03-05T11:26:19.217Z,38.30
2024-03-05T11:28:47.232Z,33.70
2024-03-05T11:31:19.338Z,31.90
2024-03-05T11:34:00.312Z,34.80
2024-03-05T11:36:31.549Z,35.45
2024-03-05T11:39:04.252Z,33.03
2024-03-05T11:41:33.104Z,33.20
2024-03-05T11:44:01.315Z,34.67
2024-03-05T11:46:47.071Z,32.72
2024-03-05T11:49:15.876Z,35.67
2024-03-05T11:51:47.070Z,34.22
2024-03-05T11:54:19.371Z,34.42
2024-03-05T11:56:59.448Z,39.50
2024-03-05T11:59:35.542Z,31.95
2024-03-05T12:02:03.990Z,40.83
2024-03-05T12:04:32.033Z,40.00
2024-03-05T12:07:04.276Z,37.33
2024-03-05T12:09:33.623Z,36.70
2024-03-05T12:12:05.586Z,34.53
2024-03-05T12:14:35.540Z,34.05
2024-03-05T12:17:08.283Z,36.42
2024-03-05T12:19:38.604Z,31.17
2024-03-05T12:22:10.575Z,29.30
2024-03-05T12:24:40.778Z,29.67
2024-03-05T12:27:09.143Z,28.35
2024-03-05T12:29:38.817Z,27.63
2024-03-05T12:32:08.873Z,25.02
2024-03-05T12:34:37.171Z,28.13
2024-03-05T12:37:09.245Z,26.88
2024-03-05T12:39:37.874Z,21.50
2024-03-05T12:42:07.385Z,26.35
2024-03-05T12:44:36.308Z,24.95
2024-03-05T12:47:13.293Z,24.05
2024-03-05T12:49:46.140Z,23.05
2024-03-05T12:52:20.044Z,23.23
2024-03-05T12:54:57.808Z,21.05
2024-03-05T12:57:26.395Z,21.30
2024-03-05T12:59:54.404Z,24.40
2024-03-05T13:02:22.353Z,20.45
2024-03-05T13:04:50.363Z,20.13
2024-03-05T13:07:19.713Z,18.52
2024-03-05T13:09:49.544Z,19.60
2024-03-05T13:12:18.184Z,19.25
2024-03-05T13:14:46.158Z,18.05
2024-03-05T13:17:14.118Z,18.77
2024-03-05T13:19:42.065Z,16.55
2024-03-05T13:22:10.211Z,16.63
2024-03-05T13:24:40.404Z,15.10
2024-03-05T13:27:08.398Z,16.65
2024-03-05T13:29:36.964Z,18.27
2024-03-05T13:32:05.793Z,16.38
2024-03-05T13:34:33.895Z,14.95
2024-03-05T13:37:01.832Z,14.10
2024-03-05T13:39:29.696Z,15.57
2024-03-05T13:41:59.411Z,15.25
2024-03-05T13:44:28.505Z,13.55
2024-03-05T13:46:56.497Z,12.57
2024-03-05T13:49:25.812Z,11.65
2024-03-05T13:51:54.718Z,11.40
2024-03-05T13:54:22.831Z,25.70
2024-03-05T13:56:51.968Z,60.05
2024-03-05T13:59:21.607Z,111.85
2024-03-05T14:01:50.097Z,67.45
2024-03-05T14:04:18.103Z,7.47
2024-03-05T14:06:46.031Z,2.78
2024-03-05T14:09:14.968Z,3.05
2024-03-05T14:11:44.336Z,2.67
2024-03-05T14:14:17.970Z,2.65
2024-03-05T14:16:48.253Z,2.38
2024-03-05T14:19:16.226Z,3.03
2024-03-05T14:21:44.143Z,3.03
2024-03-05T14:24:13.947Z,3.10
2024-03-05T14:26:42.761Z,5.30
2024-03-05T14:29:10.910Z,9.18
2024-03-05T14:31:39.077Z,7.25
2024-03-05T14:34:08.577Z,4.70
2024-03-05T14:36:38.007Z,5.80
2024-03-05T14:39:10.505Z,3.40
2024-03-05T14:41:39.346Z,5.25
2024-03-05T14:44:10.181Z,3.00
2024-03-05T14:46:39.732Z,3.03
2024-03-05T14:49:09.908Z,3.30
2024-03-05T14:51:37.864Z,3.80
2024-03-05T14:54:08.076Z,2.80
2024-03-05T14:56:37.690Z,2.63
2024-03-05T14:59:05.815Z,2.95
2024-03-05T15:01:35.048Z,2.90
2024-03-05T15:04:03.076Z,2.40
2024-03-05T15:06:32.320Z,2.20
2024-03-05T15:09:00.235Z,2.50
2024-03-05T15:11:28.426Z,2.50
2024-03-05T15:13:56.712Z,2.28
2024-03-05T15:16:25.626Z,2.30
2024-03-05T15:18:53.866Z,1.80
2024-03-05T15:21:25.180Z,3.22
2024-03-05T15:23:54.451Z,2.20
2024-03-05T15:26:23.545Z,4.18
2024-03-05T15:28:52.001Z,2.25
2024-03-05T15:31:20.885Z,6.00
2024-03-05T15:33:48.967Z,2.53
2024-03-05T15:36:16.874Z,2.22
2024-03-05T15:38:44.807Z,1.70
2024-03-05T15:41:14.242Z,1.70
2024-03-05T15:43:42.336Z,1.58
2024-03-05T15:46:10.435Z,1.38
2024-03-05T15:48:38.349Z,1.50
2024-03-05T15:51:06.412Z,1.52
2024-03-05T15:53:34.314Z,2.00
2024-03-05T15:56:13.476Z,1.73
2024-03-05T15:59:00.449Z,1.80
2024-03-05T16:01:28.451Z,9.77
2024-03-05T16:06:31.351Z,1.70
2024-03-05T16:09:00.853Z,1.42
2024-03-05T16:11:29.129Z,2.00
2024-03-05T16:13:58.714Z,1.70
2024-03-05T16:16:26.779Z,2.45
2024-03-05T16:18:54.695Z,1.50
2024-03-05T16:21:25.120Z,1.80
2024-03-05T16:23:54.219Z,1.45
2024-03-05T16:26:22.097Z,1.63
2024-03-05T16:28:50.394Z,6.45
2024-03-05T16:31:19.765Z,2.30
2024-03-05T16:33:48.623Z,1.80
2024-03-05T16:36:16.498Z,2.08
2024-03-05T16:38:44.385Z,2.45
2024-03-05T16:41:12.387Z,3.95
2024-03-05T16:43:40.444Z,2.97
2024-03-05T16:46:09.299Z,2.03
2024-03-05T16:48:39.201Z,1.95
2024-03-05T16:51:07.085Z,1.85
2024-03-05T16:53:37.304Z,62.78
2024-03-05T16:56:05.984Z,34.03
2024-03-05T16:58:36.228Z,16.95
2024-03-05T17:01:08.211Z,3.85
2024-03-05T17:03:37.117Z,3.10
2024-03-05T17:06:08.930Z,1.95
2024-03-05T17:08:40.976Z,21.55
2024-03-05T17:11:10.741Z,13.27
2024-03-05T17:13:42.567Z,8.55
2024-03-05T17:16:12.481Z,5.43
2024-03-05T17:18:40.522Z,3.95
2024-03-05T17:21:10.739Z,4.72
2024-03-05T17:23:43.470Z,4.07
2024-03-05T17:26:13.310Z,3.20
2024-03-05T17:28:42.165Z,3.47
2024-03-05T17:31:10.845Z,4.60
2024-03-05T17:33:38.807Z,3.10
2024-03-05T17:36:07.637Z,4.20
2024-03-05T17:38:37.734Z,4.85
2024-03-05T17:41:08.636Z,3.97
2024-03-05T17:43:37.182Z,4.53
2024-03-05T17:46:06.206Z,2.97
2024-03-05T17:48:34.396Z,2.80
2024-03-05T17:51:02.334Z,2.28
2024-03-05T17:53:30.505Z,6.22
2024-03-05T17:56:00.873Z,4.50
2024-03-05T17:58:29.209Z,17.15
2024-03-05T18:00:57.198Z,22.30
2024-03-05T18:03:27.111Z,12.65
2024-03-05T18:05:55.200Z,12.75
2024-03-05T18:08:23.136Z,16.33
2024-03-05T18:10:52.280Z,14.63
2024-03-05T18:13:21.960Z,13.93
2024-03-05T18:15:52.083Z,14.13
2024-03-05T18:18:20.800Z,11.43
2024-03-05T18:20:50.310Z,9.23
2024-03-05T18:23:19.708Z,5.43
2024-03-05T18:25:49.324Z,3.95
2024-03-05T18:28:21.497Z,5.35
2024-03-05T18:30:51.206Z,5.00
2024-03-05T18:33:19.579Z,4.55
2024-03-05T18:35:47.693Z,3.58
2024-03-05T18:38:24.267Z,3.92
2024-03-05T18:41:00.043Z,4.45
2024-03-05T18:43:29.577Z,3.13
2024-03-05T18:46:01.151Z,2.42
2024-03-05T18:48:29.640Z,2.72
2024-03-05T18:50:58.245Z,2.20
2024-03-05T18:53:35.798Z,4.30
2024-03-05T18:56:11.490Z,3.58
2024-03-05T18:58:39.704Z,7.03
2024-03-05T19:01:11.003Z,22.73
2024-03-05T19:03:39.975Z,9.43
2024-03-05T19:06:08.581Z,14.07
2024-03-05T19:08:38.737Z,8.65
2024-03-05T19:11:07.552Z,9.35
2024-03-05T19:13:36.989Z,7.82
2024-03-05T19:16:05.734Z,9.13
2024-03-05T19:18:35.137Z,7.13
2024-03-05T19:21:03.378Z,5.85
2024-03-05T19:23:31.304Z,4.25
2024-03-05T19:25:59.564Z,2.97
2024-03-05T19:28:28.411Z,3.33
2024-03-05T19:30:57.613Z,5.35
2024-03-05T19:33:25.841Z,5.97
2024-03-05T19:35:55.271Z,7.85
2024-03-05T19:38:23.658Z,9.85
2024-03-05T19:40:52.674Z,17.25
2024-03-05T19:43:20.575Z,10.50
2024-03-05T19:45:48.442Z,7.07
2024-03-05T19:48:16.887Z,10.07
2024-03-05T19:50:44.929Z,11.00
2024-03-05T19:53:14.361Z,37.83
2024-03-05T19:55:42.394Z,17.98
2024-03-05T19:58:11.314Z,8.32
2024-03-05T20:00:39.715Z,7.95
2024-03-05T20:03:07.662Z,7.75
2024-03-05T20:05:35.558Z,7.65
2024-03-05T20:08:04.382Z,9.60
2024-03-05T20:10:34.152Z,10.52
2024-03-05T20:13:02.260Z,8.98
2024-03-05T20:15:31.007Z,8.05
2024-03-05T20:17:58.964Z,7.28
2024-03-05T20:20:27.288Z,9.25
2024-03-05T20:22:55.238Z,18.42
2024-03-05T20:25:23.934Z,31.77
2024-03-05T20:27:54.804Z,24.10
2024-03-05T20:30:23.506Z,21.63
2024-03-05T20:32:52.394Z,10.30
2024-03-05T20:35:21.057Z,10.20
2024-03-05T20:37:51.249Z,19.83
2024-03-05T20:40:21.145Z,21.95
2024-03-05T20:42:49.553Z,53.88
2024-03-05T20:45:19.779Z,42.95
2024-03-05T20:47:49.307Z,38.00
2024-03-05T20:50:17.376Z,17.45
2024-03-05T20:52:45.658Z,11.55
2024-03-05T20:55:13.700Z,13.32
2024-03-05T20:57:44.708Z,17.77
2024-03-05T21:00:19.619Z,12.20
2024-03-05T21:02:50.934Z,7.28
2024-03-05T21:05:20.211Z,9.18
2024-03-05T21:07:54.610Z,10.15
2024-03-05T21:10:23.214Z,7.68
2024-03-05T21:12:51.138Z,6.40
2024-03-05T21:15:21.231Z,8.70
2024-03-05T21:17:51.851Z,8.35
2024-03-05T21:20:20.169Z,6.65
2024-03-05T21:22:48.136Z,8.35
2024-03-05T21:25:16.230Z,7.65
2024-03-05T21:27:44.774Z,5.15
2024-03-05T21:30:13.705Z,8.63
2024-03-05T21:32:43.149Z,9.88
2024-03-05T21:35:13.062Z,6.68
2024-03-05T21:37:41.152Z,6.95
2024-03-05T21:40:13.107Z,7.63
2024-03-05T21:42:42.492Z,5.95
2024-03-05T21:45:12.999Z,8.32
2024-03-05T21:47:41.067Z,11.82
2024-03-05T21:50:11.348Z,9.30
2024-03-05T21:52:40.827Z,12.13
2024-03-05T21:55:09.393Z,10.55
2024-03-05T21:57:40.993Z,10.38
2024-03-05T22:00:12.297Z,10.80
2024-03-05T22:02:40.996Z,9.18
2024-03-05T22:05:09.972Z,6.20
2024-03-05T22:07:38.139Z,6.25
2024-03-05T22:10:08.611Z,5.78
2024-03-05T22:12:38.721Z,7.78
2024-03-05T22:15:07.563Z,7.68
2024-03-05T22:17:36.356Z,6.20
2024-03-05T22:20:06.415Z,6.47
2024-03-05T22:22:34.391Z,5.78
2024-03-05T22:25:05.744Z,5.50
2024-03-05T22:27:35.282Z,5.97
2024-03-05T22:30:05.197Z,4.47
2024-03-05T22:32:33.204Z,3.65
2024-03-05T22:35:01.239Z,5.72
2024-03-05T22:37:29.827Z,6.60
2024-03-05T22:39:59.119Z,7.93
2024-03-05T22:42:27.044Z,4.32
2024-03-05T22:44:56.334Z,4.88
2024-03-05T22:47:24.383Z,5.65
2024-03-05T22:49:52.349Z,6.22
2024-03-05T22:52:21.022Z,4.72
2024-03-05T22:54:49.310Z,6.35
2024-03-05T22:57:17.295Z,5.35
2024-03-05T22:59:45.238Z,4.70
